Time;durP1;ratioP1;P1;durP2;ratioP2;P2;SDS_P1;SDS_P2;PMS_P1;PMS_P2;Temp;Humidity;BMP_temperature;BMP_pressure;BME280_temperature;BME280_humidity;BME280_pressure;Samples;Min_cycle;Max_cycle;Signal;HPM_P1;HPM_P2
2022/05/31 00:00:02;;;;;;;2.10;1.65;;;;;;;;;;4939551;29;20533;-72
2022/05/31 00:02:28;;;;;;;4.40;1.98;;;15.70;33.10;;;;;;4939614;29;20047;-72
2022/05/31 00:04:54;;;;;;;3.08;1.88;;;15.90;48.40;;;;;;4939606;29;20036;-72
2022/05/31 00:07:20;;;;;;;5.45;2.03;;;15.80;51.40;;;;;;4939881;29;20055;-72
2022/05/31 00:09:46;;;;;;;3.42;1.63;;;15.90;88.50;;;;;;4939450;29;20044;-72
2022/05/31 00:12:13;;;;;;;4.32;1.90;;;15.90;96.70;;;;;;4939548;29;20040;-72
2022/05/31 00:14:40;;;;;;;7.40;1.98;;;15.80;99.90;;;;;;4939574;29;20036;-72
2022/05/31 00:17:06;;;;;;;2.35;1.73;;;15.80;89.60;;;;;;4939717;29;20101;-72
2022/05/31 00:19:34;;;;;;;5.63;1.98;;;15.40;99.90;;;;;;4938963;29;20044;-72
2022/05/31 00:22:12;;;;;;;3.17;1.85;;;;;;;;;;4938765;29;20048;-72
2022/05/31 00:24:41;;;;;;;3.97;1.77;;;;;;;;;;4939097;29;20043;-72
2022/05/31 00:27:10;;;;;;;5.63;2.22;;;;;;;;;;4939026;29;20040;-72
2022/05/31 00:29:37;;;;;;;5.05;2.33;;;;;;;;;;4938956;29;20055;-72
2022/05/31 00:32:08;;;;;;;5.32;2.00;;;16.10;99.90;;;;;;4938959;29;20126;-72
2022/05/31 00:34:38;;;;;;;3.17;2.08;;;;;;;;;;4939001;29;20039;-72
2022/05/31 00:37:07;;;;;;;3.53;2.08;;;;;;;;;;4938879;29;20047;-72
2022/05/31 00:39:33;;;;;;;5.97;1.90;;;;;;;;;;4938265;29;20119;-72
2022/05/31 00:42:03;;;;;;;2.83;1.77;;;;;;;;;;4938968;29;20047;-72
2022/05/31 00:44:30;;;;;;;4.80;2.00;;;;;;;;;;4938744;29;20043;-72
2022/05/31 00:46:58;;;;;;;10.68;2.00;;;;;;;;;;4939442;29;20035;-72
2022/05/31 00:49:35;;;;;;;4.97;2.50;;;;;;;;;;4937876;29;20036;-71
2022/05/31 00:52:15;;;;;;;7.38;2.60;;;;;;;;;;4938619;29;20053;-71
2022/05/31 00:54:47;;;;;;;5.70;2.60;;;16.00;1.00;;;;;;4939162;29;20039;-72
2022/05/31 00:57:14;;;;;;;5.05;2.47;;;;;;;;;;4938365;29;20114;-72
2022/05/31 00:59:49;;;;;;;5.43;2.60;;;;;;;;;;4938167;29;20411;-71
2022/05/31 01:02:17;;;;;;;4.50;2.20;;;15.50;54.30;;;;;;4938601;29;20055;-72
2022/05/31 01:04:50;;;;;;;3.78;2.33;;;;;;;;;;4938205;29;20071;-72
2022/05/31 01:07:18;;;;;;;4.82;2.25;;;15.50;99.90;;;;;;4938105;29;20051;-71
2022/05/31 01:09:45;;;;;;;5.80;2.45;;;;;;;;;;4938329;29;20078;-71
2022/05/31 01:12:14;;;;;;;5.15;2.60;;;;;;;;;;4938183;29;20126;-71
2022/05/31 01:14:41;;;;;;;7.15;2.40;;;;;;;;;;4937899;29;20507;-71
2022/05/31 01:17:10;;;;;;;3.13;2.25;;;;;;;;;;4938369;29;20046;-71
2022/05/31 01:22:21;;;;;;;3.45;2.55;;;15.80;88.50;;;;;;4937937;29;20055;-71
2022/05/31 01:25:14;;;;;;;6.13;2.65;;;;;;;;;;4938296;29;20050;-71
2022/05/31 01:28:01;;;;;;;4.13;2.25;;;;;;;;;;4937791;29;20123;-71
2022/05/31 01:30:32;;;;;;;4.13;2.70;;;;;;;;;;4938460;29;20039;-71
2022/05/31 01:32:58;;;;;;;;;;;;;;;;;;4938584;29;20075;-71
2022/05/31 01:35:30;;;;;;;5.03;2.53;;;;;;;;;;4937911;29;20247;-71
2022/05/31 01:38:01;;;;;;;4.72;2.60;;;;;;;;;;4937775;29;20122;-71
2022/05/31 01:40:38;;;;;;;4.30;2.33;;;;;;;;;;4937091;29;20503;-71
2022/05/31 01:43:05;;;;;;;8.18;2.60;;;;;;;;;;4937587;29;20127;-71
2022/05/31 01:45:41;;;;;;;5.53;2.40;;;;;;;;;;4938223;29;20050;-71
2022/05/31 01:48:10;;;;;;;6.28;2.50;;;;;;;;;;4937813;29;20040;-71
2022/05/31 01:50:37;;;;;;;6.07;3.20;;;;;;;;;;4937612;29;20047;-71
2022/05/31 01:53:04;;;;;;;4.30;2.83;;;;;;;;;;4937765;29;20050;-71
2022/05/31 01:55:32;;;;;;;5.05;2.95;;;;;;;;;;4937533;29;20507;-71
2022/05/31 01:57:59;;;;;;;6.60;3.05;;;;;;;;;;4937625;29;20098;-71
2022/05/31 02:00:25;;;;;;;5.63;3.33;;;;;;;;;;4937455;29;20050;-71
2022/05/31 02:02:53;;;;;;;8.05;3.80;;;;;;;;;;4936927;29;20051;-71
2022/05/31 02:05:20;;;;;;;5.78;3.67;;;;;;;;;;4937145;29;20126;-71
2022/05/31 02:07:59;;;;;;;5.35;3.47;;;;;;;;;;4937830;29;20048;-72
2022/05/31 02:10:26;;;;;;;7.45;3.72;;;;;;;;;;4937908;29;20044;-72
2022/05/31 02:12:53;;;;;;;4.90;3.42;;;;;;;;;;4937013;29;20578;-72
2022/05/31 02:15:20;;;;;;;5.80;3.78;;;;;;;;;;4937066;29;20055;-71
2022/05/31 02:17:46;;;;;;;6.13;3.42;;;;;;;;;;4937359;29;20574;-71
2022/05/31 02:20:13;;;;;;;15.70;4.18;;;;;;;;;;4937058;29;20051;-71
2022/05/31 02:22:39;;;;;;;9.25;4.03;;;;;;;;;;4937321;29;20048;-71
2022/05/31 02:25:05;;;;;;;7.85;4.10;;;;;;;;;;4936907;29;20045;-71
2022/05/31 02:27:31;;;;;;;5.95;3.83;;;;;;;;;;4937639;29;20051;-71
2022/05/31 02:29:57;;;;;;;7.72;4.18;;;;;;;;;;4936876;29;20073;-71
2022/05/31 02:32:24;;;;;;;4.00;3.60;;;;;;;;;;4937126;29;20044;-71
2022/05/31 02:34:50;;;;;;;5.07;3.63;;;;;;;;;;4936977;29;20114;-71
2022/05/31 02:37:17;;;;;;;6.68;3.83;;;;;;;;;;4937079;29;20046;-71
2022/05/31 02:39:43;;;;;;;7.70;4.18;;;;;;;;;;4937151;29;20054;-71
2022/05/31 02:42:10;;;;;;;5.63;3.90;;;;;;;;;;4936685;29;20048;-71
2022/05/31 02:44:37;;;;;;;5.55;3.78;;;;;;;;;;4936706;29;20035;-71
2022/05/31 02:47:03;;;;;;;4.50;3.60;;;;;;;;;;4937012;29;20043;-71
2022/05/31 02:49:29;;;;;;;5.75;3.70;;;;;;;;;;4937154;29;20043;-71
2022/05/31 02:51:58;;;;;;;4.95;3.70;;;;;;;;;;4939303;29;20055;-71
2022/05/31 02:54:24;;;;;;;5.10;3.63;;;;;;;;;;4940434;29;20044;-71
2022/05/31 02:56:50;;;;;;;5.53;3.78;;;;;;;;;;4940416;29;20048;-71
2022/05/31 02:59:16;;;;;;;10.57;4.15;;;;;;;;;;4940755;29;20130;-71
2022/05/31 03:01:43;;;;;;;10.43;3.83;;;;;;;;;;4940523;29;20058;-71
2022/05/31 03:04:10;;;;;;;6.03;3.53;;;;;;;;;;4940129;29;20044;-71
2022/05/31 03:06:36;;;;;;;8.80;3.80;;;;;;;;;;4940514;29;20039;-71
2022/05/31 03:09:03;;;;;;;4.95;3.90;;;;;;;;;;4940579;29;20048;-72
2022/05/31 03:11:32;;;;;;;7.78;3.70;;;;;;;;;;4940438;29;20040;-71
2022/05/31 03:14:18;;;;;;;9.27;3.67;;;;;;;;;;4940366;29;20048;-72
2022/05/31 03:16:46;;;;;;;7.05;4.00;;;;;;;;;;4929948;29;20044;-72
2022/05/31 03:19:17;;;;;;;8.88;3.97;;;;;;;;;;4940420;29;20063;-72
2022/05/31 03:21:43;;;;;;;;;;;;;;;;;;4940626;29;20043;-72
2022/05/31 03:24:12;;;;;;;5.10;3.88;;;;;;;;;;4940542;29;19918;-71
2022/05/31 03:26:41;;;;;;;5.60;4.00;;;;;;;;;;4940519;29;20044;-72
2022/05/31 03:29:07;;;;;;;4.90;4.03;;;;;;;;;;4940111;29;20250;-71
2022/05/31 03:31:33;;;;;;;6.00;4.25;;;;;;;;;;4940934;29;20071;-71
2022/05/31 03:34:00;;;;;;;4.38;3.65;;;;;;;;;;4940143;29;20043;-71
2022/05/31 03:36:26;;;;;;;7.93;3.88;;;;;;;;;;4940026;29;20035;-71
2022/05/31 03:38:52;;;;;;;6.75;3.80;;;;;;;;;;4940369;29;20128;-72
2022/05/31 03:43:55;;;;;;;10.45;3.85;;;;;;;;;;5205802;23;20535;-72
2022/05/31 03:46:22;;;;;;;5.95;3.47;;;;;;;;;;4920890;29;20036;-72
2022/05/31 03:48:48;;;;;;;4.32;3.30;;;;;;;;;;4921276;29;20479;-72
2022/05/31 03:51:14;;;;;;;5.75;3.58;;;;;;;;;;4920406;29;20398;-72
2022/05/31 03:53:41;;;;;;;5.60;3.70;;;;;;;;;;4920649;29;20040;-72
2022/05/31 03:56:08;;;;;;;7.82;3.40;;;;;;;;;;4920325;29;20136;-72
2022/05/31 03:58:35;;;;;;;14.63;4.22;;;;;;;;;;4920166;29;20040;-72
2022/05/31 04:01:01;;;;;;;6.47;3.75;;;;;;;;;;4920650;29;20044;-72
2022/05/31 04:03:27;;;;;;;6.82;3.83;;;;;;;;;;4920033;29;20052;-72
2022/05/31 04:05:54;;;;;;;7.28;3.90;;;;;;;;;;4920548;29;20074;-72
2022/05/31 04:10:59;;;;;;;5.93;4.00;;;;;;;;;;5429266;23;20417;-71
2022/05/31 04:13:27;;;;;;;5.05;3.67;;;;;;;;;;4977800;28;20043;-71
2022/05/31 04:16:03;;;;;;;6.68;3.65;;;;;;;;;;4977514;28;20185;-71
2022/05/31 04:18:29;;;;;;;7.35;3.85;;;;;;;;;;4978035;28;20043;-72
2022/05/31 04:21:07;;;;;;;5.22;3.55;;;;;;;;;;4977575;28;20125;-72
2022/05/31 04:26:18;;;;;;;5.53;3.60;;;;;;;;;;4976952;28;20524;-71
2022/05/31 04:28:45;;;;;;;4.15;3.30;;;;;;;;;;4977191;28;20039;-72
2022/05/31 04:31:11;;;;;;;5.75;3.72;;;;;;;;;;4977520;28;20042;-71
2022/05/31 04:33:38;;;;;;;5.50;3.83;;;;;;;;;;4977140;28;20035;-71
2022/05/31 04:38:40;;;;;;;5.65;3.72;;;;;;;;;;5370182;23;20264;-71
2022/05/31 04:41:06;;;;;;;4.97;4.05;;;;;;;;;;4938885;29;20063;-71
2022/05/31 04:43:33;;;;;;;6.53;3.60;;;;;;;;;;4938969;29;20363;-71
2022/05/31 04:46:19;;;;;;;7.07;3.90;;;;;;;;;;4938811;29;20134;-71
2022/05/31 04:48:45;;;;;;;6.68;3.80;;;;;;;;;;4938477;29;20122;-71
2022/05/31 04:51:12;;;;;;;7.72;4.32;;;;;;;;;;4936349;29;20134;-73
2022/05/31 04:53:39;;;;;;;6.55;3.92;;;;;;;;;;4922140;29;20035;-73
2022/05/31 04:56:06;;;;;;;7.88;3.80;;;;;;;;;;4934873;29;20062;-71
2022/05/31 04:58:33;;;;;;;5.75;3.90;;;;;;;;;;4926197;29;20043;-71
2022/05/31 05:01:01;;;;;;;6.28;3.53;;;;;;;;;;4918806;29;20491;-73
2022/05/31 05:03:30;;;;;;;5.03;3.72;;;;;;;;;;4919272;29;20074;-73
2022/05/31 05:06:00;;;;;;;7.13;3.92;;;;;;;;;;4921013;29;20036;-71
2022/05/31 05:08:26;;;;;;;6.28;3.58;;;;;;;;;;4918913;29;20372;-72
2022/05/31 05:10:53;;;;;;;5.18;3.90;;;;;;;;;;4919246;29;20051;-72
2022/05/31 05:13:19;;;;;;;5.78;3.95;;;;;;;;;;4918928;29;20575;-72
2022/05/31 05:15:45;;;;;;;4.40;3.83;;;;;;;;;;4919765;29;20407;-71
2022/05/31 05:18:11;;;;;;;4.50;4.10;;;;;;;;;;4929393;29;20044;-73
2022/05/31 05:20:39;;;;;;;7.45;3.70;;;;;;;;;;4919135;29;20036;-73
2022/05/31 05:23:06;;;;;;;5.53;3.67;;;;;;;;;;4932691;29;20047;-73
2022/05/31 05:25:32;;;;;;;8.15;3.30;;;;;;;;;;4937959;29;20050;-72
2022/05/31 05:27:58;;;;;;;5.35;3.25;;;;;;;;;;4937906;29;20054;-73
2022/05/31 05:30:40;;;;;;;26.20;6.85;;;;;;;;;;4937092;29;20521;-74
2022/05/31 05:33:06;;;;;;;5.30;3.08;;;;;;;;;;4936850;29;20411;-74
2022/05/31 05:35:33;;;;;;;4.13;3.25;;;;;;;;;;4937556;29;20047;-74
2022/05/31 05:38:00;;;;;;;6.78;3.22;;;;;;;;;;4936326;29;20058;-74
2022/05/31 05:40:26;;;;;;;6.38;3.17;;;;;;;;;;4935395;29;20566;-71
2022/05/31 05:42:52;;;;;;;8.82;3.00;;;;;;;;;;4926708;29;20060;-71
2022/05/31 05:45:19;;;;;;;4.00;2.53;;;;;;;;;;4927803;29;20530;-71
2022/05/31 05:47:45;;;;;;;4.88;3.10;;;;;;;;;;4926116;29;20052;-73
2022/05/31 05:50:11;;;;;;;3.95;2.75;;;;;;;;;;4926848;29;20051;-73
2022/05/31 05:52:38;;;;;;;4.53;3.10;;;;;;;;;;4928209;29;20059;-72
2022/05/31 05:55:05;;;;;;;6.60;2.97;;;;;;;;;;4926807;29;20500;-73
2022/05/31 05:57:31;;;;;;;4.68;2.97;;;;;;;;;;4924222;29;20055;-73
2022/05/31 05:59:57;;;;;;;4.05;3.13;;;;;;;;;;4925808;29;20547;-73
2022/05/31 06:02:32;;;;;;;6.43;3.05;;;;;;;;;;4927646;29;20048;-73
2022/05/31 06:05:01;;;;;;;5.15;3.08;;;;;;;;;;4927962;29;20055;-73
2022/05/31 06:07:31;;;;;;;3.78;3.10;;;;;;;;;;4926726;29;20075;-73
2022/05/31 06:10:00;;;;;;;3.97;2.92;;;;;;;;;;4926047;29;20055;-73
2022/05/31 06:12:28;;;;;;;4.28;2.72;;;;;;;;;;4922813;29;20048;-73
2022/05/31 06:14:57;;;;;;;4.55;2.67;;;;;;;;;;4918185;29;20051;-72
2022/05/31 06:17:31;;;;;;;2.90;2.60;;;;;;;;;;4918810;29;20044;-72
2022/05/31 06:20:01;;;;;;;5.82;2.63;;;;;;;;;;4917786;29;20044;-74
2022/05/31 06:22:27;;;;;;;3.90;2.50;;;;;;;;;;4917686;29;20040;-74
2022/05/31 06:24:53;;;;;;;3.38;2.20;;;;;;;;;;4918555;29;20048;-73
2022/05/31 06:27:20;;;;;;;4.10;2.33;;;;;;;;;;4924270;29;20488;-74
2022/05/31 06:29:47;;;;;;;4.30;2.38;;;;;;;;;;4924594;29;20040;-73
2022/05/31 06:32:15;;;;;;;3.17;1.90;;;;;;;;;;4924402;29;20052;-74
2022/05/31 06:34:41;;;;;;;3.33;1.92;;;;;;;;;;4907543;29;20534;-74
2022/05/31 06:37:10;;;;;;;3.08;2.10;;;;;;;;;;4928669;29;20059;-73
2022/05/31 06:39:38;;;;;;;3.55;1.98;;;;;;;;;;4932719;29;20059;-73
2022/05/31 06:42:04;;;;;;;4.53;1.90;;;;;;;;;;4930828;29;20502;-74
2022/05/31 06:44:34;;;;;;;5.68;2.30;;;;;;;;;;4910588;29;20376;-73
2022/05/31 06:47:00;;;;;;;3.75;2.22;;;;;;;;;;4932508;29;20066;-74
2022/05/31 06:49:27;;;;;;;8.30;2.20;;;;;;;;;;4943363;29;20055;-73
2022/05/31 06:57:22;;;;;;;5.28;2.25;;;;;;;;;;4923788;29;20043;-73
2022/05/31 06:59:49;;;;;;;5.97;2.53;;;;;;;;;;4932464;29;20047;-73
2022/05/31 07:02:15;;;;;;;3.70;2.20;;;;;;;;;;4927065;29;20507;-73
2022/05/31 07:04:41;;;;;;;2.75;2.08;;;;;;;;;;4927229;29;20195;-73
2022/05/31 07:07:07;;;;;;;4.07;2.50;;;;;;;;;;4943667;29;20560;-74
2022/05/31 07:09:33;;;;;;;5.65;2.08;;;;;;;;;;4942919;29;20130;-74
2022/05/31 07:12:00;;;;;;;5.68;2.00;;;;;;;;;;4943176;29;20044;-74
2022/05/31 07:14:27;;;;;;;2.40;1.80;;;;;;;;;;4943176;29;20046;-74
2022/05/31 07:16:53;;;;;;;6.30;2.20;;;;;;;;;;4937099;29;20123;-73
2022/05/31 07:19:19;;;;;;;3.85;2.03;;;;;;;;;;4927705;29;20052;-74
2022/05/31 07:21:45;;;;;;;3.90;1.90;;;;;;;;;;4924002;29;20048;-74
2022/05/31 07:24:11;;;;;;;4.13;1.80;;;;;;;;;;4932799;29;20571;-74
2022/05/31 07:26:40;;;;;;;2.63;1.83;;;;;;;;;;4942539;29;20067;-74
2022/05/31 07:29:09;;;;;;;2.05;1.80;;;;;;;;;;4932029;29;20051;-74
2022/05/31 07:31:36;;;;;;;2.88;1.85;;;;;;;;;;4942540;29;20474;-73
2022/05/31 07:34:02;;;;;;;4.88;1.92;;;;;;;;;;4941540;29;20114;-74
2022/05/31 07:36:28;;;;;;;3.05;1.67;;;;;;;;;;4942373;29;20130;-74
2022/05/31 07:38:54;;;;;;;3.70;1.58;;;;;;;;;;4937976;29;20184;-74
2022/05/31 07:41:20;;;;;;;3.20;1.80;;;;;;;;;;4936102;29;20384;-73
2022/05/31 07:43:47;;;;;;;3.75;1.60;;;;;;;;;;4939119;29;20059;-74
2022/05/31 07:46:13;;;;;;;2.95;1.95;;;;;;;;;;4938222;29;20122;-74
2022/05/31 07:48:39;;;;;;;2.63;1.90;;;;;;;;;;4938854;29;20054;-74
2022/05/31 07:51:06;;;;;;;4.55;2.00;;;;;;;;;;4938973;29;20044;-74
2022/05/31 07:53:32;;;;;;;9.02;1.73;;;;;;;;;;4938954;29;20055;-74
2022/05/31 07:56:06;;;;;;;3.05;1.77;;;;;;;;;;4938282;29;20039;-74
2022/05/31 07:58:33;;;;;;;3.00;1.70;;;;;;;;;;4929482;29;20095;-73
2022/05/31 08:01:01;;;;;;;2.67;1.90;;;;;;;;;;4939453;29;20506;-74
2022/05/31 08:03:27;;;;;;;5.30;2.17;;;;;;;;;;4932859;29;20057;-73
2022/05/31 08:05:53;;;;;;;3.67;1.95;;;;;;;;;;4926606;29;20492;-74
2022/05/31 08:08:20;;;;;;;2.95;1.92;;;;;;;;;;4921225;29;20058;-74
2022/05/31 08:10:46;;;;;;;3.92;1.80;;;;;;;;;;4930406;29;20044;-74
2022/05/31 08:13:12;;;;;;;3.28;1.60;;;;;;;;;;4920688;29;20051;-74
2022/05/31 08:15:38;;;;;;;3.42;1.40;;;;;;;;;;4936284;29;20372;-74
2022/05/31 08:18:04;;;;;;;2.30;1.40;;;;;;;;;;4939977;29;20048;-74
2022/05/31 08:20:31;;;;;;;2.95;1.40;;;;;;;;;;4939562;29;20538;-74
2022/05/31 08:22:57;;;;;;;2.72;1.67;;;;;;;;;;4939024;29;20048;-74
2022/05/31 08:25:23;;;;;;;2.75;1.83;;;;;;;;;;4939221;29;20035;-74
2022/05/31 08:27:49;;;;;;;5.15;1.50;;;;;;;;;;4939229;29;20051;-74
2022/05/31 08:30:15;;;;;;;3.28;1.83;;;;;;;;;;4936258;29;20036;-73
2022/05/31 08:32:42;;;;;;;3.38;1.83;;;;;;;;;;4931196;29;20063;-74
2022/05/31 08:35:08;;;;;;;2.38;1.60;;;;;;;;;;4938499;29;20127;-73
2022/05/31 08:37:34;;;;;;;5.45;2.05;;;;;;;;;;4938088;29;20055;-74
2022/05/31 08:40:01;;;;;;;2.55;1.80;;;;;;;;;;4937604;29;20046;-74
2022/05/31 08:42:48;;;;;;;2.10;1.63;;;;;;;;;;4938454;29;20056;-74
2022/05/31 08:45:34;;;;;;;4.20;1.75;;;;;;;;;;4921775;29;20119;-74
2022/05/31 08:48:00;;;;;;;2.30;1.60;;;;;;;;;;4930013;29;20054;-74
2022/05/31 08:53:24;;;;;;;2.08;1.70;;;;;;;;;;4920239;29;20047;-74
2022/05/31 08:58:49;;;;;;;2.90;1.70;;;;;;;;;;4934634;29;20046;-74
2022/05/31 09:01:16;;;;;;;2.47;1.60;;;;;;;;;;4937356;29;20047;-74
2022/05/31 09:03:44;;;;;;;3.17;1.60;;;;;;;;;;4936919;29;20052;-73
2022/05/31 09:06:12;;;;;;;3.42;1.80;;;;;;;;;;4938367;29;20047;-74
2022/05/31 09:08:39;;;;;;;1.95;1.70;;;;;;;;;;4937933;29;20491;-74
2022/05/31 09:11:20;;;;;;;3.80;1.98;;;;;;;;;;4938321;29;20130;-74
2022/05/31 09:13:59;;;;;;;3.22;1.70;;;;;;;;;;4938348;29;20055;-74
2022/05/31 09:16:25;;;;;;;6.38;1.67;;;;;;;;;;4938277;29;20052;-74
2022/05/31 09:18:53;;;;;;;3.38;1.58;;;;;;;;;;4938331;29;20082;-74
2022/05/31 09:21:34;;;;;;;5.32;1.90;;;;;;;;;;4938229;29;20071;-73
2022/05/31 09:24:02;;;;;;;4.57;1.80;;;;;;;;;;4937792;29;20126;-74
2022/05/31 09:26:51;;;;;;;4.60;1.80;;;;;;;;;;4937992;29;20062;-74
2022/05/31 09:29:17;;;;;;;2.58;1.70;;;;;;;;;;4937433;29;20522;-74
2022/05/31 09:31:43;;;;;;;2.80;1.55;;;;;;;;;;4937673;29;20507;-73
2022/05/31 09:34:22;;;;;;;3.28;1.88;;;;;;;;;;4937644;29;20044;-74
2022/05/31 09:36:58;;;;;;;2.83;1.52;;;;;;;;;;4938235;29;20070;-73
2022/05/31 09:39:40;;;;;;;3.78;1.88;;;;;;;;;;4938411;29;20063;-74
2022/05/31 09:42:12;;;;;;;2.92;1.70;;;;;;;;;;4938031;29;20078;-74
2022/05/31 09:44:41;;;;;;;2.70;2.00;;;;;;;;;;4938115;29;20078;-74
2022/05/31 09:47:13;;;;;;;2.85;1.75;;;;;;;;;;4937736;29;20082;-74
2022/05/31 09:49:42;;;;;;;5.13;1.67;;;;;;;;;;4937862;29;20043;-74
2022/05/31 09:52:11;;;;;;;2.22;1.58;;;;;;;;;;4937409;29;20044;-74
2022/05/31 09:57:40;;;;;;;3.35;1.70;;;;;;;;;;4937368;29;20078;-73
2022/05/31 10:00:18;;;;;;;4.40;1.85;;;;;;;;;;4938129;29;20099;-74
2022/05/31 10:02:44;;;;;;;4.00;2.00;;;;;;;;;;4937474;29;20098;-73
2022/05/31 10:05:10;;;;;;;2.65;1.38;;;;;;;;;;4937515;29;20044;-74
2022/05/31 10:07:37;;;;;;;4.50;1.70;;;;;;;;;;4937266;29;20067;-74
2022/05/31 10:10:07;;;;;;;3.97;1.75;;;;;;;;;;4938424;29;20050;-74
2022/05/31 10:12:34;;;;;;;3.50;1.70;;;;;;;;;;4937920;29;20253;-73
2022/05/31 10:15:03;;;;;;;5.90;1.67;;;;;;;;;;4937588;29;20035;-74
2022/05/31 10:17:41;;;;;;;3.05;1.70;;;;;;;;;;4937337;29;20047;-74
2022/05/31 10:20:16;;;;;;;2.55;1.70;;;;;;;;;;4936595;29;20471;-74
2022/05/31 10:23:05;;;;;;;3.05;1.70;;;;;;;;;;4932724;29;20060;-73
2022/05/31 10:25:34;;;;;;;4.50;1.70;;;;;;;;;;4924563;29;20055;-73
2022/05/31 10:28:02;;;;;;;4.32;1.80;;;;;;;;;;4924093;29;20488;-74
2022/05/31 10:30:29;;;;;;;2.63;1.70;;;;;;;;;;4927334;29;20091;-72
2022/05/31 10:33:04;;;;;;;2.90;1.42;;;;;;;;;;4928443;29;20055;-73
2022/05/31 10:35:35;;;;;;;4.97;1.77;;;;;;;;;;4928645;29;20040;-73
2022/05/31 10:38:04;;;;;;;7.10;1.77;;;;;;;;;;4928769;29;20095;-73
2022/05/31 10:40:52;;;;;;;2.53;1.60;;;;;;;;;;4936521;29;20046;-73
2022/05/31 10:43:31;;;;;;;2.65;1.60;;;;;;;;;;4929218;29;20051;-74
2022/05/31 10:45:58;;;;;;;4.70;1.48;;;;;;;;;;4930149;29;20035;-73
2022/05/31 10:48:25;;;;;;;2.75;1.48;;;;;;;;;;4931937;29;20046;-73
2022/05/31 10:51:04;;;;;;;3.33;1.33;;;;;;;;;;4931573;29;20048;-74
2022/05/31 10:53:34;;;;;;;3.13;1.60;;;;;;;;;;4917390;29;20051;-74
2022/05/31 10:56:09;;;;;;;5.35;1.65;;;;;;;;;;4925624;29;20174;-74
2022/05/31 10:58:46;;;;;;;2.85;1.60;;;;;;;;;;4936065;29;20495;-74
2022/05/31 11:01:18;;;;;;;2.72;1.40;;;;;;;;;;4917861;29;20043;-74
2022/05/31 11:04:03;;;;;;;3.55;1.95;;;;;;;;;;4924769;29;20504;-74
2022/05/31 11:06:42;;;;;;;3.85;1.63;;;;;;;;;;4936596;29;20044;-74
2022/05/31 11:12:13;;;;;;;4.03;1.55;;;;;;;;;;4936567;29;20066;-73
2022/05/31 11:14:54;;;;;;;1.90;1.48;;;;;;;;;;4939587;29;20182;-74
2022/05/31 11:17:21;;;;;;;3.33;1.42;;;;;;;;;;4921168;29;20039;-73
2022/05/31 11:20:02;;;;;;;2.65;1.40;;;;;;;;;;4919855;29;20048;-73
2022/05/31 11:22:28;;;;;;;4.25;1.75;;;;;;;;;;4936796;29;20047;-74
2022/05/31 11:25:17;;;;;;;2.80;1.50;;;;;;;;;;4940251;29;20075;-73
2022/05/31 11:27:55;;;;;;;4.20;1.50;;;;;;;;;;4880038;29;20384;-74
2022/05/31 11:30:27;;;;;;;3.75;1.58;;;;;;;;;;4922709;29;20044;-73
2022/05/31 11:33:05;;;;;;;2.28;1.50;;;;;;;;;;4931833;29;20051;-74
2022/05/31 11:35:35;;;;;;;4.50;1.70;;;;;;;;;;4928516;29;20054;-73
2022/05/31 11:38:07;;;;;;;3.90;1.70;;;;;;;;;;4925604;29;20079;-74
2022/05/31 11:40:52;;;;;;;4.70;2.00;;;;;;;;;;4930887;29;20078;-74
2022/05/31 11:43:28;;;;;;;1.83;1.50;;;;;;;;;;4920802;29;20044;-74
2022/05/31 11:46:07;;;;;;;3.15;1.80;;;;;;;;;;4939945;29;20036;-74
2022/05/31 11:48:33;;;;;;;3.53;1.90;;;;;;;;;;4940246;29;20091;-74
2022/05/31 11:51:09;;;;;;;3.78;1.77;;;;;;;;;;4939626;29;20082;-74
2022/05/31 11:53:54;;;;;;;2.40;1.77;;;;;;;;;;4924441;29;20143;-74
2022/05/31 11:56:25;;;;;;;2.13;1.45;;;;;;;;;;4934128;29;20498;-74
2022/05/31 11:58:55;;;;;;;2.88;1.63;;;;;;;;;;4931077;29;20538;-73
2022/05/31 12:01:21;;;;;;;2.35;1.40;;;;;;;;;;4920745;29;20113;-74
2022/05/31 12:03:47;;;;;;;2.78;1.83;;;;;;;;;;4920250;29;20054;-74
2022/05/31 12:06:26;;;;;;;2.45;1.77;;;;;;;;;;4937777;29;20046;-74
2022/05/31 12:08:56;;;;;;;3.08;1.95;;;;;;;;;;4935717;29;20052;-73
2022/05/31 12:11:30;;;;;;;7.15;2.28;;;;;;;;;;4920229;29;20048;-74
2022/05/31 12:13:57;;;;;;;3.70;2.13;;;;;;;;;;4920315;29;20126;-73
2022/05/31 12:16:24;;;;;;;4.32;2.10;;;;;;;;;;4920860;29;20044;-74
2022/05/31 12:19:17;;;;;;;3.63;2.00;;;;;;;;;;4920517;29;20055;-73
2022/05/31 12:21:48;;;;;;;3.45;2.10;;;;;;;;;;4919490;29;20052;-73
2022/05/31 12:24:14;;;;;;;2.38;2.17;;;;;;;;;;4919104;29;20483;-74
2022/05/31 12:26:46;;;;;;;3.50;2.10;;;;;;;;;;4919916;29;20043;-73
2022/05/31 12:29:30;;;;;;;4.10;2.20;;;;;;;;;;4920122;29;20048;-74
2022/05/31 12:32:15;;;;;;;5.93;2.58;;;;;;;;;;4919760;29;20495;-74
2022/05/31 12:34:42;;;;;;;3.28;2.08;;;;;;;;;;4919729;29;20404;-73
2022/05/31 12:37:09;;;;;;;3.33;2.13;;;;;;;;;;4919442;29;20044;-74
2022/05/31 12:39:37;;;;;;;4.93;2.25;;;;;;;;;;4930705;29;20114;-74
2022/05/31 12:42:15;;;;;;;3.72;2.22;;;;;;;;;;4920115;29;20583;-74
2022/05/31 12:44:46;;;;;;;3.33;1.95;;;;;;;;;;4928389;29;20545;-73
2022/05/31 12:47:15;;;;;;;3.90;2.13;;;;;;;;;;4921606;29;20511;-74
2022/05/31 12:49:50;;;;;;;2.58;1.98;;;;;;;;;;4931057;29;20044;-73
2022/05/31 12:55:11;;;;;;;2.35;2.15;;;;;;;;;;4938993;29;20047;-73
2022/05/31 13:00:28;;;;;;;6.65;2.58;;;;;;;;;;4938031;29;19922;-73
2022/05/31 13:02:56;;;;;;;3.03;2.40;;;;;;;;;;4926309;29;20052;-73
2022/05/31 13:05:39;;;;;;;4.57;2.33;;;;;;;;;;4934417;29;20063;-73
2022/05/31 13:08:12;;;;;;;2.90;2.17;;;;;;;;;;4925697;29;20044;-73
2022/05/31 13:19:34;;;;;;;3.58;2.20;;;;;;;;;;4937928;29;20067;-74
2022/05/31 13:21:55;;;;;;;3.53;1.90;;;;;;;;;;4937069;29;20066;-74
2022/05/31 13:24:21;;;;;;;2.60;1.90;;;;;;;;;;4936992;29;20040;-73
2022/05/31 13:26:49;;;;;;;3.25;2.38;;;;;;;;;;4937087;29;20044;-74
2022/05/31 13:29:20;;;;;;;2.83;2.15;;;;;;;;;;4937597;29;20043;-74
2022/05/31 13:31:57;;;;;;;3.53;2.08;;;;;;;;;;4937517;29;20079;-74
2022/05/31 13:34:34;;;;;;;4.45;2.20;;;;;;;;;;4938014;29;20043;-74
2022/05/31 13:37:12;;;;;;;2.28;2.00;;;;;;;;;;4936599;29;20122;-74
2022/05/31 13:39:43;;;;;;;3.35;2.00;;;;;;;;;;4922894;29;20104;-74
2022/05/31 13:42:16;;;;;;;2.58;2.20;;;;;;;;;;4918422;29;20078;-74
2022/05/31 13:44:43;;;;;;;2.55;2.10;;;;;;;;;;4928369;29;20122;-74
2022/05/31 13:47:11;;;;;;;5.00;1.92;;;;;;;;;;4937724;29;20102;-74
2022/05/31 13:49:42;;;;;;;8.13;2.42;;;;;;;;;;4937684;29;20047;-74
2022/05/31 13:52:24;;;;;;;3.20;2.00;;;;;;;;;;4926243;29;20054;-74
2022/05/31 13:54:51;;;;;;;2.85;2.15;;;;;;;;;;4929944;29;20051;-74
2022/05/31 13:57:19;;;;;;;5.18;2.35;;;;;;;;;;4932964;29;20043;-73
2022/05/31 13:59:53;;;;;;;5.85;2.03;;;;;;;;;;4933447;29;20119;-73
2022/05/31 14:02:26;;;;;;;5.95;2.25;;;;;;;;;;4932452;29;20051;-73
2022/05/31 14:05:02;;;;;;;4.90;2.20;;;;;;;;;;4929532;29;20058;-73
2022/05/31 14:07:32;;;;;;;4.00;2.42;;;;;;;;;;4929628;29;20123;-73
2022/05/31 14:09:58;;;;;;;2.40;1.73;;;;;;;;;;4922962;29;20039;-74
2022/05/31 14:12:26;;;;;;;3.03;2.08;;;;;;;;;;4933058;29;20043;-73
2022/05/31 14:14:52;;;;;;;4.40;2.13;;;;;;;;;;4918127;29;20044;-73
2022/05/31 14:17:33;;;;;;;3.03;2.25;;;;;;;;;;4925538;29;20507;-73
2022/05/31 14:20:00;;;;;;;4.00;2.05;;;;;;;;;;4937908;29;20074;-72
2022/05/31 14:22:28;;;;;;;4.68;2.80;;;;;;;;;;4937112;29;20043;-73
2022/05/31 14:24:56;;;;;;;4.13;2.10;;;;;;;;;;4922840;29;20136;-74
2022/05/31 14:27:23;;;;;;;3.28;2.35;;;;;;;;;;4926770;29;20056;-73
2022/05/31 14:29:59;;;;;;;2.95;2.30;;;;;;;;;;4934867;29;20047;-74
2022/05/31 14:32:30;;;;;;;4.03;2.38;;;;;;;;;;4932109;29;20043;-74
2022/05/31 14:34:56;;;;;;;4.55;2.63;;;;;;;;;;4930642;29;20102;-74
2022/05/31 14:37:30;;;;;;;3.58;2.45;;;;;;;;;;4936577;29;20054;-73
2022/05/31 14:40:03;;;;;;;4.30;2.28;;;;;;;;;;4937471;29;20040;-74
2022/05/31 14:42:33;;;;;;;2.28;2.08;;;;;;;;;;4922241;29;20047;-74
2022/05/31 14:45:01;;;;;;;3.75;2.50;;;;;;;;;;4929310;29;20118;-74
2022/05/31 14:47:30;;;;;;;3.35;2.33;;;;;;;;;;4926955;29;20044;-74
2022/05/31 14:50:04;;;;;;;3.35;2.10;;;;;;;;;;4940334;29;20031;-74
2022/05/31 14:52:31;;;;;;;2.95;1.73;;;;;;;;;;4938980;29;20044;-74
2022/05/31 14:55:10;;;;;;;3.55;2.33;;;;;;;;;;4927346;29;20415;-73
2022/05/31 15:00:21;;;;;;;4.40;2.35;;;;;;;;;;4937426;29;20055;-74
2022/05/31 15:02:48;;;;;;;5.28;2.25;;;;;;;;;;4924404;29;20052;-74
2022/05/31 15:05:22;;;;;;;2.83;2.13;;;;;;;;;;4933150;29;20039;-73
2022/05/31 15:07:59;;;;;;;3.45;2.30;;;;;;;;;;4932421;29;20523;-73
2022/05/31 15:10:28;;;;;;;5.65;2.13;;;;;;;;;;4928192;29;20051;-73
2022/05/31 15:21:14;;;;;;;4.18;1.77;;;;;;;;;;4923678;29;20035;-73
2022/05/31 15:23:40;;;;;;;2.80;1.88;;;;;;;;;;4930228;29;20119;-73
2022/05/31 15:26:07;;;;;;;3.55;1.75;;;;;;;;;;4942262;29;20043;-73
2022/05/31 15:28:33;;;;;;;2.60;1.80;;;;;;;;;;4959359;29;20097;-73
2022/05/31 15:31:03;;;;;;;2.40;1.45;;;;;;;;;;4948749;29;20047;-73
2022/05/31 15:33:30;;;;;;;3.10;1.60;;;;;;;;;;4932225;29;20052;-72
2022/05/31 15:35:56;;;;;;;3.63;1.77;;;;;;;;;;4922372;29;20054;-73
2022/05/31 15:38:25;;;;;;;3.40;1.40;;;;;;;;;;4935547;29;20067;-72
2022/05/31 15:40:51;;;;;;;4.03;1.55;;;;;;;;;;4938317;29;20047;-73
2022/05/31 15:46:03;;;;;;;4.47;1.50;;;;;;;;;;4939048;29;20042;-72
2022/05/31 15:48:29;;;;;;;6.78;1.60;;;;;;;;;;4937428;29;20436;-73
2022/05/31 15:50:56;;;;;;;1.67;1.52;;;;;;;;;;4934320;29;20050;-73